createdAt,value
2023-01-30T00:00:44.045Z,1010.70
2023-01-30T00:01:44.058Z,1010.68
2023-01-30T00:02:43.962Z,1010.59
2023-01-30T00:03:43.926Z,1010.49
2023-01-30T00:04:43.916Z,1010.49
2023-01-30T00:05:43.920Z,1010.36
2023-01-30T00:06:43.828Z,1010.38
2023-01-30T00:07:43.776Z,1010.33
2023-01-30T00:08:43.739Z,1010.33
2023-01-30T00:09:43.698Z,1010.29
2023-01-30T00:10:43.672Z,1010.29
2023-01-30T00:11:43.720Z,1010.27
2023-01-30T00:12:43.587Z,1010.14
2023-01-30T00:13:43.558Z,1010.11
2023-01-30T00:14:43.509Z,1010.08
2023-01-30T00:15:43.479Z,1010.07
2023-01-30T00:16:43.448Z,1010.04
2023-01-30T00:17:43.456Z,1010.03
2023-01-30T00:18:43.350Z,1010.00
2023-01-30T00:19:43.318Z,1009.91
2023-01-30T00:20:43.273Z,1009.94
2023-01-30T00:21:43.248Z,1009.95
2023-01-30T00:22:52.473Z,1009.92
2023-01-30T00:23:43.236Z,1009.93
2023-01-30T00:24:43.204Z,1009.90
2023-01-30T00:25:43.212Z,1009.89
2023-01-30T00:26:43.127Z,1009.81
2023-01-30T00:27:43.017Z,1009.71
2023-01-30T00:28:43.040Z,1009.79
2023-01-30T00:29:45.663Z,1009.69
2023-01-30T00:30:42.942Z,1009.63
2023-01-30T00:31:42.863Z,1009.53
2023-01-30T00:32:42.822Z,1009.57
2023-01-30T00:33:42.777Z,1009.52
2023-01-30T00:34:42.750Z,1009.48
2023-01-30T00:35:42.757Z,1009.34
2023-01-30T00:36:42.672Z,1009.35
2023-01-30T00:37:42.634Z,1009.40
2023-01-30T00:38:42.591Z,1009.28
2023-01-30T00:39:42.552Z,1009.22
2023-01-30T00:40:42.510Z,1009.16
2023-01-30T00:41:42.542Z,1009.15
2023-01-30T00:42:42.444Z,1009.01
2023-01-30T00:43:42.389Z,1009.00
2023-01-30T00:44:42.380Z,1008.98
2023-01-30T00:45:42.371Z,1008.93
2023-01-30T00:46:42.291Z,1008.84
2023-01-30T00:47:42.312Z,1008.80
2023-01-30T00:48:42.203Z,1008.76
2023-01-30T00:49:42.176Z,1008.70
2023-01-30T00:50:42.139Z,1008.68
2023-01-30T00:51:42.092Z,1008.78
2023-01-30T00:52:42.059Z,1008.78
2023-01-30T00:53:42.069Z,1008.79
2023-01-30T00:54:42.016Z,1008.78
2023-01-30T00:55:41.939Z,1008.69
2023-01-30T00:56:41.906Z,1008.65
2023-01-30T00:57:41.857Z,1008.66
2023-01-30T00:58:41.835Z,1008.71
2023-01-30T00:59:41.840Z,1008.62
2023-01-30T01:00:41.750Z,1008.68
2023-01-30T01:01:41.765Z,1008.62
2023-01-30T01:02:41.709Z,1008.57
2023-01-30T01:03:41.634Z,1008.56
2023-01-30T01:04:41.599Z,1008.58
2023-01-30T01:05:41.628Z,1008.52
2023-01-30T01:06:41.520Z,1008.51
2023-01-30T01:07:41.480Z,1008.55
2023-01-30T01:08:41.453Z,1008.49
2023-01-30T01:09:41.401Z,1008.44
2023-01-30T01:10:41.360Z,1008.39
2023-01-30T01:11:41.374Z,1008.32
2023-01-30T01:12:41.303Z,1008.35
2023-01-30T01:13:41.248Z,1008.30
2023-01-30T01:14:41.206Z,1008.15
2023-01-30T01:15:41.174Z,1008.09
2023-01-30T01:16:41.175Z,1008.02
2023-01-30T01:17:41.147Z,1008.03
2023-01-30T01:18:41.065Z,1008.10
2023-01-30T01:19:41.027Z,1008.05
2023-01-30T01:20:40.988Z,1008.00
2023-01-30T01:21:40.955Z,1008.00
2023-01-30T01:22:40.898Z,1007.98
2023-01-30T01:23:40.937Z,1007.92
2023-01-30T01:24:40.832Z,1007.91
2023-01-30T01:25:40.792Z,1007.90
2023-01-30T01:26:40.773Z,1007.90
2023-01-30T01:27:40.726Z,1007.88
2023-01-30T01:28:40.683Z,1007.84
2023-01-30T01:29:40.691Z,1007.76
2023-01-30T01:30:40.600Z,1007.78
2023-01-30T01:31:40.662Z,1007.77
2023-01-30T01:32:40.625Z,1007.75
2023-01-30T01:33:40.489Z,1007.84
2023-01-30T01:34:40.438Z,1007.81
2023-01-30T01:35:40.404Z,1007.92
2023-01-30T01:36:55.839Z,1008.00
2023-01-30T01:37:40.328Z,1007.97
2023-01-30T01:38:40.350Z,1008.09
2023-01-30T01:39:40.252Z,1008.06
2023-01-30T01:40:40.240Z,1008.02
2023-01-30T01:41:40.173Z,1007.96
2023-01-30T01:42:40.138Z,1008.01
2023-01-30T01:43:40.157Z,1007.96
2023-01-30T01:44:40.069Z,1007.99
2023-01-30T01:45:40.063Z,1007.98
2023-01-30T01:46:39.979Z,1008.04
2023-01-30T01:47:39.951Z,1008.05
2023-01-30T01:48:39.981Z,1008.07
2023-01-30T01:49:39.872Z,1007.98
2023-01-30T01:50:39.831Z,1007.94
2023-01-30T01:51:39.819Z,1007.90
2023-01-30T01:52:39.764Z,1007.87
2023-01-30T01:53:39.741Z,1007.81
2023-01-30T01:54:39.756Z,1007.82
2023-01-30T01:55:39.642Z,1007.73
2023-01-30T01:56:39.601Z,1007.62
2023-01-30T01:57:39.558Z,1007.63
2023-01-30T01:58:39.528Z,1007.52
2023-01-30T01:59:39.494Z,1007.54
2023-01-30T02:00:39.521Z,1007.49
2023-01-30T02:01:39.425Z,1007.43
2023-01-30T02:02:39.388Z,1007.44
2023-01-30T02:03:39.338Z,1007.40
2023-01-30T02:04:39.297Z,1007.34
2023-01-30T02:05:39.256Z,1007.31
2023-01-30T02:06:39.280Z,1007.18
2023-01-30T02:07:39.181Z,1007.25
2023-01-30T02:08:39.145Z,1007.20
2023-01-30T02:09:39.120Z,1007.11
2023-01-30T02:10:39.066Z,1007.12
2023-01-30T02:11:39.035Z,1007.13
2023-01-30T02:12:39.048Z,1007.04
2023-01-30T02:13:38.951Z,1006.96
2023-01-30T02:14:38.914Z,1006.93
2023-01-30T02:15:38.879Z,1006.83
2023-01-30T02:16:38.833Z,1006.86
2023-01-30T02:17:38.880Z,1006.79
2023-01-30T02:18:38.763Z,1006.75
2023-01-30T02:19:38.725Z,1006.76
2023-01-30T02:20:38.691Z,1006.65
2023-01-30T02:21:38.655Z,1006.75
2023-01-30T02:22:38.605Z,1006.66
2023-01-30T02:23:38.632Z,1006.64
2023-01-30T02:24:38.535Z,1006.65
2023-01-30T02:25:38.505Z,1006.60
2023-01-30T02:26:38.523Z,1006.62
2023-01-30T02:27:38.421Z,1006.61
2023-01-30T02:28:38.402Z,1006.63
2023-01-30T02:29:38.393Z,1006.69
2023-01-30T02:30:38.457Z,1006.69
2023-01-30T02:31:38.343Z,1006.62
2023-01-30T02:32:38.257Z,1006.53
2023-01-30T02:33:38.185Z,1006.57
2023-01-30T02:34:38.144Z,1006.52
2023-01-30T02:35:38.137Z,1006.51
2023-01-30T02:36:38.143Z,1006.49
2023-01-30T02:37:38.033Z,1006.54
2023-01-30T02:38:37.995Z,1006.40
2023-01-30T02:39:37.964Z,1006.34
2023-01-30T02:40:37.913Z,1006.32
2023-01-30T02:41:37.944Z,1006.41
2023-01-30T02:42:37.844Z,1006.23
2023-01-30T02:43:37.822Z,1006.28
2023-01-30T02:44:37.774Z,1006.27
2023-01-30T02:45:37.731Z,1006.25
2023-01-30T02:46:37.686Z,1006.18
2023-01-30T02:47:37.716Z,1006.25
2023-01-30T02:48:37.627Z,1006.18
2023-01-30T02:49:37.599Z,1006.16
2023-01-30T02:50:37.537Z,1006.15
2023-01-30T02:51:37.505Z,1006.05
2023-01-30T02:52:37.466Z,1006.02
2023-01-30T02:53:37.538Z,1005.92
2023-01-30T02:54:37.398Z,1005.89
2023-01-30T02:55:37.345Z,1005.90
2023-01-30T02:56:37.309Z,1005.80
2023-01-30T02:57:37.276Z,1005.79
2023-01-30T02:58:37.235Z,1005.81
2023-01-30T02:59:37.249Z,1005.73
2023-01-30T03:00:37.172Z,1005.72
2023-01-30T03:01:37.208Z,1005.71
2023-01-30T03:02:37.160Z,1005.70
2023-01-30T03:03:37.061Z,1005.65
2023-01-30T03:04:37.065Z,1005.68
2023-01-30T03:05:36.975Z,1005.68
2023-01-30T03:06:36.931Z,1005.62
2023-01-30T03:07:36.896Z,1005.54
2023-01-30T03:08:36.864Z,1005.60
2023-01-30T03:09:36.822Z,1005.61
2023-01-30T03:10:36.824Z,1005.62
2023-01-30T03:11:36.735Z,1005.57
2023-01-30T03:12:36.716Z,1005.54
2023-01-30T03:13:36.659Z,1005.59
2023-01-30T03:14:36.625Z,1005.57
2023-01-30T03:15:36.663Z,1005.56
2023-01-30T03:16:36.541Z,1005.54
2023-01-30T03:17:36.517Z,1005.58
2023-01-30T03:18:36.472Z,1005.52
2023-01-30T03:19:36.437Z,1005.42
2023-01-30T03:20:36.401Z,1005.44
2023-01-30T03:21:36.412Z,1005.51
2023-01-30T03:22:36.334Z,1005.33
2023-01-30T03:23:36.282Z,1005.48
2023-01-30T03:24:36.252Z,1005.48
2023-01-30T03:25:36.221Z,1005.47
2023-01-30T03:26:36.238Z,1005.43
2023-01-30T03:27:36.183Z,1005.32
2023-01-30T03:28:36.084Z,1005.25
2023-01-30T03:29:36.048Z,1005.24
2023-01-30T03:30:36.025Z,1005.29
2023-01-30T03:31:36.078Z,1005.30
2023-01-30T03:32:35.951Z,1005.23
2023-01-30T03:33:35.951Z,1005.25
2023-01-30T03:34:35.855Z,1005.25
2023-01-30T03:35:35.819Z,1005.33
2023-01-30T03:36:35.779Z,1005.24
2023-01-30T03:37:35.745Z,1005.25
2023-01-30T03:38:35.719Z,1005.22
2023-01-30T03:39:35.739Z,1005.19
2023-01-30T03:40:35.638Z,1005.14
2023-01-30T03:41:35.591Z,1005.15
2023-01-30T03:42:35.558Z,1005.12
2023-01-30T03:43:35.532Z,1005.13
2023-01-30T03:44:35.480Z,1005.19
2023-01-30T03:45:35.571Z,1005.16
2023-01-30T03:46:35.402Z,1005.09
2023-01-30T03:47:35.363Z,1005.06
2023-01-30T03:48:35.329Z,1005.01
2023-01-30T03:49:35.292Z,1005.03
2023-01-30T03:50:35.248Z,1004.93
2023-01-30T03:51:35.697Z,1004.93
2023-01-30T03:52:35.182Z,1004.95
2023-01-30T03:53:35.166Z,1004.94
2023-01-30T03:54:35.099Z,1004.88
2023-01-30T03:55:35.080Z,1004.86
2023-01-30T03:56:35.015Z,1004.82
2023-01-30T03:57:35.044Z,1004.79
2023-01-30T03:58:34.948Z,1004.70
2023-01-30T03:59:34.915Z,1004.64
2023-01-30T04:00:34.865Z,1004.67
2023-01-30T04:01:34.936Z,1004.60
2023-01-30T04:02:34.858Z,1004.66
2023-01-30T04:03:34.751Z,1004.67
2023-01-30T04:04:34.712Z,1004.62
2023-01-30T04:05:34.678Z,1004.47
2023-01-30T04:06:36.523Z,1004.46
2023-01-30T04:07:34.603Z,1004.51
2023-01-30T04:08:34.572Z,1004.54
2023-01-30T04:09:34.526Z,1004.53
2023-01-30T04:10:34.484Z,1004.47
2023-01-30T04:11:34.448Z,1004.45
2023-01-30T04:12:34.475Z,1004.39
2023-01-30T04:13:34.376Z,1004.35
2023-01-30T04:14:34.333Z,1004.33
2023-01-30T04:15:34.311Z,1004.28
2023-01-30T04:16:34.299Z,1004.36
2023-01-30T04:17:34.233Z,1004.34
2023-01-30T04:18:34.327Z,1004.32
2023-01-30T04:19:34.150Z,1004.26
2023-01-30T04:20:34.114Z,1004.28
2023-01-30T04:21:34.080Z,1004.33
2023-01-30T04:22:34.045Z,1004.28
2023-01-30T04:23:34.001Z,1004.22
2023-01-30T04:24:34.036Z,1004.33
2023-01-30T04:25:33.946Z,1004.22
2023-01-30T04:26:33.947Z,1004.24
2023-01-30T04:27:33.851Z,1004.27
2023-01-30T04:28:33.803Z,1004.20
2023-01-30T04:29:33.765Z,1004.24
2023-01-30T04:30:33.841Z,1004.24
2023-01-30T04:31:33.794Z,1004.26
2023-01-30T04:32:33.656Z,1004.18
2023-01-30T04:33:33.626Z,1004.20
2023-01-30T04:34:33.581Z,1004.23
2023-01-30T04:35:33.543Z,1004.17
2023-01-30T04:36:33.587Z,1004.23
2023-01-30T04:37:33.463Z,1004.28
2023-01-30T04:38:33.436Z,1004.30
2023-01-30T04:39:33.389Z,1004.22
2023-01-30T04:40:33.349Z,1004.20
2023-01-30T04:41:33.313Z,1004.13
2023-01-30T04:42:33.372Z,1004.24
2023-01-30T04:43:33.231Z,1004.18
2023-01-30T04:44:33.200Z,1004.13
2023-01-30T04:45:33.179Z,1004.15
2023-01-30T04:46:33.136Z,1004.14
2023-01-30T04:47:33.112Z,1004.12
2023-01-30T04:48:33.102Z,1004.00
2023-01-30T04:49:33.035Z,1004.03
2023-01-30T04:50:33.087Z,1003.95
2023-01-30T04:51:32.935Z,1003.91
2023-01-30T04:52:32.984Z,1004.08
2023-01-30T04:53:32.871Z,1003.99
2023-01-30T04:54:32.888Z,1003.95
2023-01-30T04:55:32.776Z,1003.92
2023-01-30T04:56:32.751Z,1003.91
2023-01-30T04:57:32.703Z,1003.95
2023-01-30T04:58:32.667Z,1003.93
2023-01-30T04:59:32.684Z,1003.95
2023-01-30T05:00:32.638Z,1003.93
2023-01-30T05:01:32.565Z,1003.98
2023-01-30T05:02:32.561Z,1003.93
2023-01-30T05:03:32.481Z,1003.93
2023-01-30T05:04:34.502Z,1003.91
2023-01-30T05:05:32.409Z,1003.91
2023-01-30T05:06:32.375Z,1003.85
2023-01-30T05:07:32.343Z,1003.82
2023-01-30T05:08:32.292Z,1003.80
2023-01-30T05:09:33.004Z,1003.80
2023-01-30T05:10:32.210Z,1003.77
2023-01-30T05:11:32.190Z,1003.76
2023-01-30T05:12:32.141Z,1003.70
2023-01-30T05:13:32.105Z,1003.67
2023-01-30T05:14:32.155Z,1003.69
2023-01-30T05:15:32.026Z,1003.74
2023-01-30T05:16:31.996Z,1003.71
2023-01-30T05:17:32.001Z,1003.69
2023-01-30T05:18:31.925Z,1003.70
2023-01-30T05:19:31.873Z,1003.73
2023-01-30T05:20:31.906Z,1003.67
2023-01-30T05:21:31.806Z,1003.65
2023-01-30T05:22:31.786Z,1003.60
2023-01-30T05:23:31.735Z,1003.58
2023-01-30T05:24:31.684Z,1003.54
2023-01-30T05:25:31.652Z,1003.61
2023-01-30T05:26:31.697Z,1003.54
2023-01-30T05:27:31.574Z,1003.55
2023-01-30T05:28:31.536Z,1003.58
2023-01-30T05:29:31.508Z,1003.54
2023-01-30T05:30:31.512Z,1003.57
2023-01-30T05:31:31.586Z,1003.56
2023-01-30T05:32:31.439Z,1003.56
2023-01-30T05:33:31.341Z,1003.47
2023-01-30T05:34:31.566Z,1003.46
2023-01-30T05:35:31.273Z,1003.39
2023-01-30T05:36:31.228Z,1003.45
2023-01-30T05:37:31.200Z,1003.43
2023-01-30T05:38:31.208Z,1003.41
2023-01-30T05:39:31.123Z,1003.42
2023-01-30T05:40:31.083Z,1003.40
2023-01-30T05:41:31.037Z,1003.35
2023-01-30T05:42:31.000Z,1003.32
2023-01-30T05:43:30.970Z,1003.26
2023-01-30T05:44:30.998Z,1003.19
2023-01-30T05:45:30.887Z,1003.28
2023-01-30T05:46:31.651Z,1003.22
2023-01-30T05:47:30.839Z,1003.25
2023-01-30T05:48:30.780Z,1003.29
2023-01-30T05:49:30.772Z,1003.23
2023-01-30T05:50:30.804Z,1003.25
2023-01-30T05:51:30.657Z,1003.18
2023-01-30T05:52:30.619Z,1003.15
2023-01-30T05:53:30.621Z,1003.07
2023-01-30T05:54:30.602Z,1003.07
2023-01-30T05:55:30.564Z,1003.08
2023-01-30T05:56:30.476Z,1003.04
2023-01-30T05:57:30.427Z,1003.01
2023-01-30T05:58:30.395Z,1003.03
2023-01-30T05:59:30.413Z,1003.01
2023-01-30T06:00:30.549Z,1002.93
2023-01-30T06:01:30.281Z,1002.92
2023-01-30T06:02:30.252Z,1002.95
2023-01-30T06:03:30.275Z,1002.86
2023-01-30T06:04:30.159Z,1002.92
2023-01-30T06:05:30.192Z,1002.78
2023-01-30T06:06:30.086Z,1002.85
2023-01-30T06:07:30.066Z,1002.92
2023-01-30T06:08:30.009Z,1002.96
2023-01-30T06:09:29.982Z,1002.93
2023-01-30T06:10:29.996Z,1002.80
2023-01-30T06:11:29.908Z,1002.87
2023-01-30T06:12:29.872Z,1002.83
2023-01-30T06:13:29.843Z,1002.82
2023-01-30T06:14:29.786Z,1002.80
2023-01-30T06:15:29.749Z,1002.88
2023-01-30T06:16:29.883Z,1002.95
2023-01-30T06:17:30.044Z,1002.92
2023-01-30T06:18:29.647Z,1002.85
2023-01-30T06:19:29.599Z,1002.81
2023-01-30T06:20:29.562Z,1002.75
2023-01-30T06:21:29.602Z,1002.68
2023-01-30T06:22:29.491Z,1002.69
2023-01-30T06:23:29.473Z,1002.68
2023-01-30T06:24:29.404Z,1002.62
2023-01-30T06:25:29.371Z,1002.66
2023-01-30T06:26:29.429Z,1002.69
2023-01-30T06:27:29.299Z,1002.79
2023-01-30T06:28:29.256Z,1002.71
2023-01-30T06:29:29.214Z,1002.83
2023-01-30T06:30:29.203Z,1002.77
2023-01-30T06:31:29.159Z,1002.67
2023-01-30T06:32:29.157Z,1002.70
2023-01-30T06:33:29.070Z,1002.76
2023-01-30T06:34:29.033Z,1002.78
2023-01-30T06:35:28.998Z,1002.87
2023-01-30T06:36:28.959Z,1002.90
2023-01-30T06:37:28.921Z,1002.84
2023-01-30T06:38:28.940Z,1002.80
2023-01-30T06:39:28.847Z,1002.85
2023-01-30T06:40:28.811Z,1002.78
2023-01-30T06:41:28.769Z,1002.69
2023-01-30T06:42:28.739Z,1002.80
2023-01-30T06:43:28.696Z,1002.86
2023-01-30T06:44:28.724Z,1003.00
2023-01-30T06:45:28.618Z,1002.96
2023-01-30T06:46:28.645Z,1002.84
2023-01-30T06:47:28.539Z,1002.74
2023-01-30T06:48:28.508Z,1002.68
2023-01-30T06:49:28.458Z,1002.67
2023-01-30T06:50:28.489Z,1002.74
2023-01-30T06:51:28.393Z,1002.72
2023-01-30T06:52:28.347Z,1002.88
2023-01-30T06:53:28.378Z,1002.83
2023-01-30T06:54:28.274Z,1002.70
2023-01-30T06:55:28.245Z,1002.53
2023-01-30T06:56:28.199Z,1002.51
2023-01-30T06:57:28.162Z,1002.55
2023-01-30T06:58:28.137Z,1002.67
2023-01-30T06:59:28.143Z,1002.73
2023-01-30T07:00:28.060Z,1002.75
2023-01-30T07:01:29.091Z,1002.70
2023-01-30T07:02:27.972Z,1002.71
2023-01-30T07:03:27.947Z,1002.69
2023-01-30T07:04:27.949Z,1002.71
2023-01-30T07:05:27.921Z,1002.66
2023-01-30T07:06:27.831Z,1002.59
2023-01-30T07:07:27.788Z,1002.74
2023-01-30T07:08:27.757Z,1002.66
2023-01-30T07:09:27.717Z,1002.81
2023-01-30T07:10:27.670Z,1002.76
2023-01-30T07:11:27.708Z,1002.73
2023-01-30T07:12:27.595Z,1002.72
2023-01-30T07:13:27.569Z,1002.90
2023-01-30T07:14:27.539Z,1002.85
2023-01-30T07:15:27.488Z,1002.83
2023-01-30T07:16:27.477Z,1002.85
2023-01-30T07:17:27.474Z,1002.82
2023-01-30T07:18:27.381Z,1002.83
2023-01-30T07:19:27.340Z,1002.77
2023-01-30T07:20:27.301Z,1002.65
2023-01-30T07:21:27.281Z,1002.75
2023-01-30T07:22:27.238Z,1002.75
2023-01-30T07:23:27.245Z,1002.75
2023-01-30T07:24:27.156Z,1002.74
2023-01-30T07:25:27.125Z,1002.75
2023-01-30T07:26:27.675Z,1002.59
2023-01-30T07:27:27.045Z,1002.62
2023-01-30T07:28:27.000Z,1002.58
2023-01-30T07:29:27.037Z,1002.72
2023-01-30T07:30:27.001Z,1002.56
2023-01-30T07:31:26.916Z,1002.59
2023-01-30T07:32:26.859Z,1002.57
2023-01-30T07:33:26.829Z,1002.63
2023-01-30T07:34:26.792Z,1002.55
2023-01-30T07:35:26.852Z,1002.70
2023-01-30T07:36:26.726Z,1002.57
2023-01-30T07:37:26.812Z,1002.45
2023-01-30T07:38:26.660Z,1002.52
2023-01-30T07:39:26.607Z,1002.48
2023-01-30T07:40:26.571Z,1002.56
2023-01-30T07:41:26.587Z,1002.63
2023-01-30T07:42:26.486Z,1002.59
2023-01-30T07:43:26.507Z,1002.57
2023-01-30T07:44:26.423Z,1002.70
2023-01-30T07:45:26.394Z,1002.57
2023-01-30T07:46:26.343Z,1002.65
2023-01-30T07:47:26.374Z,1002.56
2023-01-30T07:48:26.271Z,1002.69
2023-01-30T07:49:26.233Z,1002.60
2023-01-30T07:50:26.200Z,1002.63
2023-01-30T07:51:26.155Z,1002.63
2023-01-30T07:52:26.173Z,1002.63
2023-01-30T07:53:26.155Z,1002.67
2023-01-30T07:54:26.056Z,1002.67
2023-01-30T07:55:26.029Z,1002.73
2023-01-30T07:56:25.984Z,1002.83
2023-01-30T07:57:25.949Z,1002.80
2023-01-30T07:58:25.989Z,1002.78
2023-01-30T07:59:25.877Z,1002.70
2023-01-30T08:00:25.825Z,1002.69
2023-01-30T08:01:25.832Z,1002.60
2023-01-30T08:02:25.751Z,1002.60
2023-01-30T08:03:25.732Z,1002.66
2023-01-30T08:04:25.762Z,1002.66
2023-01-30T08:05:25.651Z,1002.72
2023-01-30T08:06:25.609Z,1002.72
2023-01-30T08:07:25.579Z,1002.73
2023-01-30T08:08:25.537Z,1002.66
2023-01-30T08:09:25.561Z,1002.61
2023-01-30T08:10:25.474Z,1002.72
2023-01-30T08:11:25.432Z,1002.64
2023-01-30T08:12:25.382Z,1002.68
2023-01-30T08:13:25.357Z,1002.68
2023-01-30T08:14:25.327Z,1002.65
2023-01-30T08:15:25.379Z,1002.63
2023-01-30T08:16:25.258Z,1002.70
2023-01-30T08:17:25.303Z,1002.69
2023-01-30T08:18:25.167Z,1002.68
2023-01-30T08:19:25.132Z,1002.66
2023-01-30T08:20:25.104Z,1002.64
2023-01-30T08:21:25.111Z,1002.63
2023-01-30T08:22:25.019Z,1002.64
2023-01-30T08:23:24.990Z,1002.61
2023-01-30T08:24:24.951Z,1002.69
2023-01-30T08:25:24.918Z,1002.64
2023-01-30T08:26:24.928Z,1002.58
2023-01-30T08:27:24.897Z,1002.59
2023-01-30T08:28:24.806Z,1002.59
2023-01-30T08:29:24.763Z,1002.59
2023-01-30T08:30:24.762Z,1002.61
2023-01-30T08:31:24.722Z,1002.66
2023-01-30T08:32:24.709Z,1002.61
2023-01-30T08:33:24.622Z,1002.70
2023-01-30T08:34:24.593Z,1002.67
2023-01-30T08:35:24.551Z,1002.68
2023-01-30T08:36:24.511Z,1002.70
2023-01-30T08:37:24.474Z,1002.66
2023-01-30T08:38:24.491Z,1002.74
2023-01-30T08:39:24.467Z,1002.69
2023-01-30T08:40:24.373Z,1002.71
2023-01-30T08:41:25.039Z,1002.72
2023-01-30T08:42:24.295Z,1002.79
2023-01-30T08:43:24.272Z,1002.72
2023-01-30T08:44:24.280Z,1002.75
2023-01-30T08:45:24.185Z,1002.71
2023-01-30T08:46:24.171Z,1002.75
2023-01-30T08:47:24.109Z,1002.70
2023-01-30T08:48:24.075Z,1002.73
2023-01-30T08:49:24.037Z,1002.72
2023-01-30T08:50:24.120Z,1002.69
2023-01-30T08:51:23.967Z,1002.63
2023-01-30T08:52:23.936Z,1002.64
2023-01-30T08:53:23.903Z,1002.53
2023-01-30T08:54:23.855Z,1002.64
2023-01-30T08:55:23.823Z,1002.57
2023-01-30T08:56:23.851Z,1002.55
2023-01-30T08:57:23.749Z,1002.63
2023-01-30T08:58:23.712Z,1002.60
2023-01-30T08:59:23.681Z,1002.58
2023-01-30T09:00:23.646Z,1002.66
2023-01-30T09:01:23.718Z,1002.60
2023-01-30T09:02:23.593Z,1002.60
2023-01-30T09:03:23.556Z,1002.58
2023-01-30T09:04:23.506Z,1002.60
2023-01-30T09:05:23.464Z,1002.54
2023-01-30T09:06:26.074Z,1002.55
2023-01-30T09:07:23.385Z,1002.59
2023-01-30T09:08:23.360Z,1002.63
2023-01-30T09:09:23.322Z,1002.63
2023-01-30T09:10:23.285Z,1002.67
2023-01-30T09:11:23.249Z,1002.68
2023-01-30T09:12:23.295Z,1002.63
2023-01-30T09:13:23.183Z,1002.71
2023-01-30T09:14:23.140Z,1002.80
2023-01-30T09:15:23.106Z,1002.69
2023-01-30T09:16:23.151Z,1002.70
2023-01-30T09:17:23.030Z,1002.68
2023-01-30T09:18:23.051Z,1002.76
2023-01-30T09:19:22.983Z,1002.75
2023-01-30T09:20:22.932Z,1002.76
2023-01-30T09:21:22.905Z,1002.83
2023-01-30T09:22:22.910Z,1002.85
2023-01-30T09:23:22.835Z,1002.82
2023-01-30T09:24:22.854Z,1002.85
2023-01-30T09:25:22.774Z,1002.84
2023-01-30T09:26:22.757Z,1002.94
2023-01-30T09:27:22.684Z,1002.88
2023-01-30T09:28:22.680Z,1002.88
2023-01-30T09:29:22.608Z,1002.87
2023-01-30T09:30:22.708Z,1002.96
2023-01-30T09:31:22.651Z,1002.92
2023-01-30T09:32:22.519Z,1002.92
2023-01-30T09:33:22.467Z,1002.94
2023-01-30T09:34:22.493Z,1003.01
2023-01-30T09:35:22.406Z,1002.93
2023-01-30T09:36:22.357Z,1003.00
2023-01-30T09:37:22.327Z,1002.98
2023-01-30T09:38:22.305Z,1002.91
2023-01-30T09:39:22.262Z,1002.92
2023-01-30T09:40:22.278Z,1002.89
2023-01-30T09:41:22.193Z,1002.93
2023-01-30T09:42:22.144Z,1002.98
2023-01-30T09:43:22.121Z,1002.86
2023-01-30T09:44:22.081Z,1002.90
2023-01-30T09:45:22.052Z,1002.92
2023-01-30T09:46:22.110Z,1002.92
2023-01-30T09:47:21.975Z,1002.94
2023-01-30T09:48:21.948Z,1003.01
2023-01-30T09:49:21.910Z,1002.96
2023-01-30T09:50:21.913Z,1003.00
2023-01-30T09:51:21.837Z,1003.00
2023-01-30T09:52:21.854Z,1003.00
2023-01-30T09:53:21.758Z,1003.01
2023-01-30T09:54:21.730Z,1003.04
2023-01-30T09:55:21.717Z,1003.04
2023-01-30T09:56:21.656Z,1002.97
2023-01-30T09:57:22.480Z,1003.03
2023-01-30T09:58:21.725Z,1002.94
2023-01-30T09:59:21.606Z,1002.96
2023-01-30T10:00:21.521Z,1002.91
2023-01-30T10:01:21.659Z,1002.96
2023-01-30T10:02:25.553Z,1002.91
2023-01-30T10:03:21.478Z,1002.97
2023-01-30T10:04:21.548Z,1003.03
2023-01-30T10:05:21.355Z,1003.00
2023-01-30T10:06:22.061Z,1003.02
2023-01-30T10:07:21.327Z,1003.09
2023-01-30T10:08:21.236Z,1003.06
2023-01-30T10:09:21.203Z,1003.02
2023-01-30T10:10:21.226Z,1002.95
2023-01-30T10:11:22.067Z,1002.99
2023-01-30T10:12:21.115Z,1003.01
2023-01-30T10:13:21.088Z,1002.95
2023-01-30T10:14:21.036Z,1002.86
2023-01-30T10:15:21.000Z,1002.89
2023-01-30T10:16:21.037Z,1002.90
2023-01-30T10:17:20.917Z,1002.91
2023-01-30T10:18:20.897Z,1002.95
2023-01-30T10:19:34.704Z,1002.90
2023-01-30T10:20:21.286Z,1002.86
2023-01-30T10:21:20.846Z,1002.95
2023-01-30T10:22:20.818Z,1002.81
2023-01-30T10:23:20.705Z,1002.87
2023-01-30T10:24:20.669Z,1002.88
2023-01-30T10:25:20.642Z,1002.82
2023-01-30T10:26:20.693Z,1002.78
2023-01-30T10:27:20.591Z,1002.76
2023-01-30T10:28:20.602Z,1002.78
2023-01-30T10:29:20.542Z,1002.75
2023-01-30T10:30:20.812Z,1002.69
2023-01-30T10:31:20.501Z,1002.82
2023-01-30T10:32:20.377Z,1002.75
2023-01-30T10:33:20.371Z,1002.77
2023-01-30T10:34:20.386Z,1002.73
2023-01-30T10:35:20.297Z,1002.76
2023-01-30T10:36:20.264Z,1002.60
2023-01-30T10:37:20.211Z,1002.80
2023-01-30T10:38:20.165Z,1002.72
2023-01-30T10:39:20.142Z,1002.72
2023-01-30T10:40:20.412Z,1002.69
2023-01-30T10:41:20.096Z,1002.72
2023-01-30T10:42:20.098Z,1002.69
2023-01-30T10:43:19.996Z,1002.75
2023-01-30T10:44:19.946Z,1002.74
2023-01-30T10:45:19.925Z,1002.74
2023-01-30T10:46:19.908Z,1002.72
2023-01-30T10:47:22.130Z,1002.77
2023-01-30T10:48:19.858Z,1002.71
2023-01-30T10:49:19.770Z,1002.75
2023-01-30T10:50:20.205Z,1002.73
2023-01-30T10:51:19.748Z,1002.82
2023-01-30T10:52:19.728Z,1002.74
2023-01-30T10:53:19.632Z,1002.67
2023-01-30T10:54:20.050Z,1002.57
2023-01-30T10:55:31.506Z,1002.66
2023-01-30T10:56:19.587Z,1002.68
2023-01-30T10:57:19.563Z,1002.66
2023-01-30T10:58:19.482Z,1002.73
2023-01-30T10:59:19.424Z,1002.59
2023-01-30T11:00:19.804Z,1002.60
2023-01-30T11:01:19.361Z,1002.56
2023-01-30T11:02:19.327Z,1002.63
2023-01-30T11:03:19.358Z,1002.63
2023-01-30T11:04:19.312Z,1002.61
2023-01-30T11:05:19.589Z,1002.57
2023-01-30T11:06:19.186Z,1002.42
2023-01-30T11:07:19.141Z,1002.50
2023-01-30T11:08:19.104Z,1002.57
2023-01-30T11:09:19.158Z,1002.51
2023-01-30T11:10:19.135Z,1002.43
2023-01-30T11:11:19.013Z,1002.55
2023-01-30T11:12:18.975Z,1002.44
2023-01-30T11:13:19.001Z,1002.36
2023-01-30T11:14:18.965Z,1002.46
2023-01-30T11:15:19.245Z,1002.40
2023-01-30T11:16:18.826Z,1002.46
2023-01-30T11:17:18.791Z,1002.38
2023-01-30T11:19:17.838Z,1002.39
2023-01-30T11:19:21.214Z,1002.40
2023-01-30T11:20:19.020Z,1002.37
2023-01-30T11:21:18.665Z,1002.37
2023-01-30T11:22:18.659Z,1002.44
2023-01-30T11:23:18.587Z,1002.45
2023-01-30T11:24:18.607Z,1002.28
2023-01-30T11:25:18.805Z,1002.33
2023-01-30T11:26:18.553Z,1002.24
2023-01-30T11:27:18.587Z,1002.24
2023-01-30T11:28:18.417Z,1002.29
2023-01-30T11:29:18.395Z,1002.25
2023-01-30T11:30:18.737Z,1002.13
2023-01-30T11:31:21.347Z,1002.24
2023-01-30T11:32:18.316Z,1002.23
2023-01-30T11:33:18.259Z,1002.07
2023-01-30T11:34:18.208Z,1002.04
2023-01-30T11:35:18.216Z,1001.99
2023-01-30T11:36:18.235Z,1001.98
2023-01-30T11:37:19.088Z,1002.03
2023-01-30T11:38:22.091Z,1002.03
2023-01-30T11:39:18.069Z,1001.96
2023-01-30T11:40:18.632Z,1001.93
2023-01-30T11:41:19.572Z,1001.92
2023-01-30T11:42:18.041Z,1001.91
2023-01-30T11:43:17.941Z,1001.88
2023-01-30T11:44:17.857Z,1001.89
2023-01-30T11:45:18.585Z,1001.88
2023-01-30T11:46:17.912Z,1001.84
2023-01-30T11:47:17.793Z,1001.97
2023-01-30T11:48:31.636Z,1001.94
2023-01-30T11:49:47.438Z,1001.86
2023-01-30T11:50:20.894Z,1001.92
2023-01-30T11:51:17.664Z,1001.83
2023-01-30T11:52:17.600Z,1001.85
2023-01-30T11:53:17.580Z,1001.98
2023-01-30T11:54:17.505Z,1001.94
2023-01-30T11:55:17.546Z,1002.12
2023-01-30T11:56:17.451Z,1001.88
2023-01-30T11:57:17.484Z,1001.80
2023-01-30T11:58:17.366Z,1001.92
2023-01-30T11:59:17.326Z,1001.77
2023-01-30T12:00:17.679Z,1001.80
2023-01-30T12:01:17.282Z,1001.71
2023-01-30T12:02:17.253Z,1001.79
2023-01-30T12:03:17.308Z,1001.70
2023-01-30T12:04:17.189Z,1001.62
2023-01-30T12:05:17.118Z,1001.64